Time;durP1;ratioP1;P1;durP2;ratioP2;P2;SDS_P1;SDS_P2;PMS_P1;PMS_P2;Temp;Humidity;BMP_temperature;BMP_pressure;BME280_temperature;BME280_humidity;BME280_pressure;Samples;Min_cycle;Max_cycle;Signal;HPM_P1;HPM_P2
2022/10/19 00:01:48;;;;;;;6.10;1.67;;;13.30;99.90;;;;;;5079832;28;20472;-42
2022/10/19 00:04:14;;;;;;;5.13;2.50;;;13.40;99.90;;;;;;5082589;28;20454;-40
2022/10/19 00:06:44;;;;;;;6.13;2.30;;;13.30;99.90;;;;;;5085455;28;20462;-41
2022/10/19 00:09:13;;;;;;;10.33;2.20;;;13.40;99.90;;;;;;5086859;28;20526;-40
2022/10/19 00:11:44;;;;;;;2.07;1.60;;;13.30;99.90;;;;;;5085199;28;20477;-40
2022/10/19 00:14:13;;;;;;;3.57;2.13;;;13.30;99.90;;;;;;5085633;28;20427;-40
2022/10/19 00:16:41;;;;;;;4.20;2.43;;;13.30;99.90;;;;;;5085073;28;20480;-42
2022/10/19 00:19:12;;;;;;;3.60;2.17;;;13.40;99.90;;;;;;5085528;28;20438;-41
2022/10/19 00:21:39;;;;;;;4.10;2.20;;;13.40;99.90;;;;;;5086381;28;20433;-43
2022/10/19 00:24:08;;;;;;;1.87;1.77;;;13.30;99.90;;;;;;5086049;28;20476;-45
2022/10/19 00:26:37;;;;;;;3.90;1.47;;;13.30;99.90;;;;;;5085818;28;20454;-42
2022/10/19 00:29:05;;;;;;;6.47;2.27;;;13.20;99.90;;;;;;5085505;28;20426;-39
2022/10/19 00:31:32;;;;;;;7.40;2.33;;;13.20;99.90;;;;;;5085245;28;20493;-40
2022/10/19 00:33:59;;;;;;;2.13;1.83;;;13.20;99.90;;;;;;5086157;28;20448;-39
2022/10/19 00:36:27;;;;;;;7.17;1.80;;;13.20;99.90;;;;;;5085925;28;20851;-41
2022/10/19 00:38:55;;;;;;;6.53;2.20;;;13.30;99.90;;;;;;5086028;28;20448;-41
2022/10/19 00:41:25;;;;;;;2.83;2.13;;;13.30;99.90;;;;;;5084936;28;20764;-42
2022/10/19 00:43:57;;;;;;;2.70;1.90;;;13.30;99.90;;;;;;5081996;28;20442;-40
2022/10/19 00:46:25;;;;;;;2.50;1.67;;;13.30;99.90;;;;;;5079206;28;20457;-41
2022/10/19 00:48:57;;;;;;;2.20;1.93;;;13.30;99.90;;;;;;5079306;28;20517;-41
2022/10/19 00:51:25;;;;;;;3.50;1.60;;;13.30;99.90;;;;;;5083463;28;20426;-39
2022/10/19 00:53:52;;;;;;;2.57;1.97;;;13.30;99.90;;;;;;5085041;28;20880;-43
2022/10/19 00:56:19;;;;;;;3.23;1.77;;;13.30;99.90;;;;;;5085325;28;20432;-42
2022/10/19 00:58:47;;;;;;;4.70;1.47;;;13.30;99.90;;;;;;5084788;28;20470;-40
2022/10/19 01:01:17;;;;;;;2.50;1.90;;;13.30;99.90;;;;;;5085008;28;20524;-42
2022/10/19 01:03:45;;;;;;;2.87;1.93;;;13.30;99.90;;;;;;5085690;28;20553;-42
2022/10/19 01:06:13;;;;;;;2.10;1.50;;;13.20;99.90;;;;;;5088085;28;20449;-41
2022/10/19 01:08:40;;;;;;;4.83;2.30;;;13.10;99.90;;;;;;5088961;28;20480;-43
2022/10/19 01:11:20;;;;;;;4.17;1.83;;;13.20;99.90;;;;;;5088423;28;20434;-39
2022/10/19 01:14:03;;;;;;;9.27;1.87;;;13.20;99.90;;;;;;5089059;28;20454;-41
2022/10/19 01:16:50;;;;;;;4.83;2.20;;;13.20;99.90;;;;;;5088345;28;20422;-39
2022/10/19 01:19:39;;;;;;;2.73;1.30;;;13.20;99.90;;;;;;5083821;28;20492;-38
2022/10/19 01:22:20;;;;;;;3.50;1.53;;;13.20;99.90;;;;;;5092791;28;20620;-37
2022/10/19 01:25:02;;;;;;;5.57;1.80;;;13.10;99.90;;;;;;5093753;28;20484;-40
2022/10/19 01:27:50;;;;;;;1.40;1.30;;;13.10;99.90;;;;;;5086126;28;20505;-41
2022/10/19 01:30:32;;;;;;;3.03;1.13;;;13.10;99.90;;;;;;5080235;28;20476;-41
2022/10/19 01:33:09;;;;;;;1.63;1.33;;;13.20;99.90;;;;;;5097709;28;20454;-39
2022/10/19 01:35:40;;;;;;;5.43;1.60;;;13.20;99.90;;;;;;5097508;28;20457;-40
2022/10/19 01:38:15;;;;;;;18.07;1.87;;;13.30;99.90;;;;;;5095090;28;20498;-42
2022/10/19 01:40:54;;;;;;;7.17;1.60;;;13.30;99.90;;;;;;5093633;28;20466;-43
2022/10/19 01:43:28;;;;;;;2.43;1.70;;;13.30;99.90;;;;;;5091242;28;20442;-42
2022/10/19 01:46:04;;;;;;;2.70;2.50;;;13.20;99.90;;;;;;5087598;28;20477;-40
2022/10/19 01:48:34;;;;;;;2.60;1.20;;;13.20;99.90;;;;;;5088932;28;20441;-43
2022/10/19 01:51:05;;;;;;;5.33;1.50;;;13.20;99.90;;;;;;5087612;28;20552;-42
2022/10/19 01:53:39;;;;;;;8.23;1.53;;;13.20;99.90;;;;;;5087138;28;20477;-41
2022/10/19 01:56:07;;;;;;;2.40;1.70;;;13.20;99.90;;;;;;5087730;28;20933;-40
2022/10/19 01:58:37;;;;;;;3.40;1.83;;;13.20;99.90;;;;;;5087820;28;20434;-42
2022/10/19 02:01:08;;;;;;;4.20;1.97;;;13.20;99.90;;;;;;5079160;28;20472;-39
2022/10/19 02:03:36;;;;;;;3.97;1.60;;;13.20;99.90;;;;;;5087400;28;20484;-40
2022/10/19 02:06:06;;;;;;;5.07;1.63;;;13.20;99.90;;;;;;5086364;28;20438;-40
2022/10/19 02:08:39;;;;;;;6.13;1.60;;;13.20;99.90;;;;;;5076397;28;20787;-40
2022/10/19 02:11:06;;;;;;;4.80;2.07;;;13.20;99.90;;;;;;5076207;28;20442;-40
2022/10/19 02:13:34;;;;;;;5.97;1.60;;;13.10;99.90;;;;;;5076099;28;20787;-41
2022/10/19 02:16:06;;;;;;;3.63;1.60;;;13.10;99.90;;;;;;5075366;28;20469;-42
2022/10/19 02:18:37;;;;;;;1.93;1.60;;;13.20;99.90;;;;;;5076390;28;20442;-40
2022/10/19 02:21:05;;;;;;;1.93;1.73;;;13.20;99.90;;;;;;5082554;28;20505;-41
2022/10/19 02:23:32;;;;;;;6.90;1.70;;;13.20;99.90;;;;;;5094619;28;20439;-42
2022/10/19 02:26:02;;;;;;;7.47;1.80;;;13.20;99.90;;;;;;5094660;28;20473;-41
2022/10/19 02:28:30;;;;;;;7.50;2.90;;;13.10;99.90;;;;;;5092411;28;20514;-42
2022/10/19 02:30:57;;;;;;;3.60;1.43;;;13.00;99.90;;;;;;5091095;28;20446;-39
2022/10/19 02:33:26;;;;;;;8.80;1.80;;;13.00;99.90;;;;;;5086493;28;20488;-42
2022/10/19 02:35:53;;;;;;;2.53;1.50;;;13.00;99.90;;;;;;5086005;28;20466;-42
2022/10/19 02:38:23;;;;;;;3.30;1.30;;;13.00;99.90;;;;;;5086467;28;20438;-40
2022/10/19 02:40:58;;;;;;;3.63;1.63;;;13.10;99.90;;;;;;5085884;28;20452;-41
2022/10/19 02:43:26;;;;;;;1.97;1.63;;;13.10;99.90;;;;;;5086926;28;20426;-44
2022/10/19 02:45:58;;;;;;;2.37;1.50;;;13.10;99.90;;;;;;5086655;28;20472;-41
2022/10/19 02:48:29;;;;;;;3.27;1.53;;;13.10;99.90;;;;;;5086856;28;20473;-43
2022/10/19 02:50:57;;;;;;;3.50;1.27;;;13.00;99.90;;;;;;5087331;28;20438;-41
2022/10/19 02:53:23;;;;;;;2.80;1.43;;;13.00;99.90;;;;;;5083242;28;20486;-40
2022/10/19 02:55:51;;;;;;;3.50;1.60;;;12.90;99.90;;;;;;5081756;28;20442;-44
2022/10/19 02:58:18;;;;;;;3.60;1.30;;;12.90;99.90;;;;;;5081250;28;20474;-40
2022/10/19 03:00:45;;;;;;;3.53;1.20;;;12.90;99.90;;;;;;5081295;28;20787;-37
2022/10/19 03:03:14;;;;;;;4.53;1.50;;;12.90;99.90;;;;;;5080536;28;20457;-39
2022/10/19 03:05:42;;;;;;;5.27;1.50;;;12.90;99.90;;;;;;5080286;28;20439;-39
2022/10/19 03:08:09;;;;;;;5.33;1.73;;;13.00;99.90;;;;;;5080283;28;20875;-44
2022/10/19 03:10:36;;;;;;;2.47;1.33;;;13.00;99.90;;;;;;5080874;28;20476;-41
2022/10/19 03:13:05;;;;;;;2.37;1.30;;;13.00;99.90;;;;;;5079791;28;20492;-39
2022/10/19 03:15:32;;;;;;;1.83;1.20;;;13.00;99.90;;;;;;5080609;28;20462;-39
2022/10/19 03:17:58;;;;;;;4.17;1.50;;;12.90;99.90;;;;;;5080446;28;20438;-39
2022/10/19 03:20:25;;;;;;;3.17;1.20;;;12.90;99.90;;;;;;5080765;28;20671;-41
2022/10/19 03:23:00;;;;;;;1.83;1.20;;;12.80;99.90;;;;;;5080786;28;20435;-46
2022/10/19 03:25:26;;;;;;;7.33;1.97;;;12.80;99.90;;;;;;5080728;28;20440;-40
2022/10/19 03:27:53;;;;;;;3.13;1.50;;;12.80;99.90;;;;;;5080290;28;20467;-42
2022/10/19 03:30:20;;;;;;;2.87;1.87;;;12.90;99.90;;;;;;5081034;28;20442;-41
2022/10/19 03:32:47;;;;;;;1.20;1.00;;;13.00;99.90;;;;;;5080516;28;20490;-42
2022/10/19 03:35:14;;;;;;;1.50;1.33;;;13.00;99.90;;;;;;5079651;28;20458;-39
2022/10/19 03:37:41;;;;;;;1.27;1.10;;;13.00;99.90;;;;;;5080374;28;20469;-44
2022/10/19 03:40:10;;;;;;;4.60;1.20;;;13.10;99.90;;;;;;5080490;28;20902;-40
2022/10/19 03:42:37;;;;;;;1.10;0.90;;;13.10;99.90;;;;;;5080681;28;20438;-40
2022/10/19 03:45:04;;;;;;;8.37;1.53;;;13.10;99.90;;;;;;5079757;28;20471;-41
2022/10/19 03:47:31;;;;;;;1.77;1.23;;;13.10;99.90;;;;;;5080307;28;20426;-42
2022/10/19 03:49:58;;;;;;;4.87;1.40;;;13.10;99.90;;;;;;5080108;28;20474;-40
2022/10/19 03:52:25;;;;;;;2.60;1.07;;;13.00;99.90;;;;;;5080466;28;20907;-41
2022/10/19 03:54:52;;;;;;;3.90;1.27;;;12.90;99.90;;;;;;5080152;28;20941;-39
2022/10/19 03:57:20;;;;;;;7.43;1.47;;;12.90;99.90;;;;;;5080283;28;20463;-43
2022/10/19 03:59:46;;;;;;;1.90;1.53;;;12.90;99.90;;;;;;5080823;28;20451;-40
2022/10/19 04:02:16;;;;;;;6.17;1.00;;;12.90;99.90;;;;;;5079402;28;20493;-40
2022/10/19 04:04:43;;;;;;;5.03;1.27;;;12.90;99.90;;;;;;5079650;28;20442;-40
2022/10/19 04:07:10;;;;;;;4.03;1.50;;;12.90;99.90;;;;;;5079729;28;20927;-40
2022/10/19 04:09:38;;;;;;;1.83;1.50;;;13.00;99.90;;;;;;5079157;28;20468;-40
2022/10/19 04:12:08;;;;;;;3.23;1.30;;;13.00;99.90;;;;;;5079548;28;20475;-38
2022/10/19 04:14:38;;;;;;;1.47;1.27;;;12.90;99.90;;;;;;5079870;28;20485;-42
2022/10/19 04:17:05;;;;;;;1.83;1.00;;;13.00;99.90;;;;;;5080019;28;20462;-39
2022/10/19 04:19:32;;;;;;;8.00;1.33;;;13.00;99.90;;;;;;5079888;28;20427;-41
2022/10/19 04:21:59;;;;;;;1.50;1.00;;;12.90;99.90;;;;;;5079685;28;20466;-40
2022/10/19 04:24:26;;;;;;;3.30;1.33;;;12.90;99.90;;;;;;5079648;28;20438;-42
2022/10/19 04:26:55;;;;;;;2.17;1.40;;;13.00;99.90;;;;;;5079613;28;20792;-40
2022/10/19 04:29:23;;;;;;;1.07;0.80;;;13.00;99.90;;;;;;5079576;28;20856;-40
2022/10/19 04:31:52;;;;;;;7.90;1.10;;;13.00;99.90;;;;;;5080067;28;20464;-42
2022/10/19 04:34:20;;;;;;;4.70;1.27;;;12.90;99.90;;;;;;5080009;28;20486;-39
2022/10/19 04:36:46;;;;;;;1.40;1.07;;;12.80;99.90;;;;;;5079623;28;20450;-41
2022/10/19 04:39:13;;;;;;;7.20;1.23;;;12.80;99.90;;;;;;5080269;28;20457;-43
2022/10/19 04:41:40;;;;;;;3.40;1.00;;;12.80;99.90;;;;;;5083535;28;20464;-43
2022/10/19 04:44:07;;;;;;;3.47;1.00;;;12.80;99.90;;;;;;5083718;28;20442;-42
2022/10/19 04:46:34;;;;;;;2.60;1.10;;;12.80;99.90;;;;;;5082937;28;20444;-39
2022/10/19 04:49:05;;;;;;;1.60;1.00;;;12.80;99.90;;;;;;5083046;28;20458;-40
2022/10/19 04:51:31;;;;;;;1.00;0.70;;;12.90;99.90;;;;;;5083496;28;20477;-42
2022/10/19 04:53:58;;;;;;;1.20;0.90;;;12.90;99.90;;;;;;5083071;28;20496;-42
2022/10/19 04:56:26;;;;;;;2.33;1.40;;;12.90;99.90;;;;;;5082779;28;20525;-42
2022/10/19 04:58:56;;;;;;;2.07;1.20;;;13.00;99.90;;;;;;5083261;28;20458;-42
2022/10/19 05:01:23;;;;;;;1.20;0.83;;;13.00;99.90;;;;;;5082970;28;20450;-41
2022/10/19 05:03:54;;;;;;;7.37;2.20;;;12.90;99.90;;;;;;5082840;28;20453;-41
2022/10/19 05:06:22;;;;;;;2.37;1.10;;;12.90;99.90;;;;;;5083940;28;20434;-42
2022/10/19 05:08:49;;;;;;;4.03;1.33;;;13.00;99.90;;;;;;5082984;28;20450;-44
2022/10/19 05:11:17;;;;;;;1.17;0.90;;;12.90;99.90;;;;;;5083448;28;20442;-40
2022/10/19 05:13:44;;;;;;;1.00;0.70;;;12.90;99.90;;;;;;5082830;28;20485;-40
2022/10/19 05:16:13;;;;;;;3.87;1.43;;;13.00;99.90;;;;;;5083424;28;20790;-39
2022/10/19 05:18:42;;;;;;;1.20;1.00;;;13.00;99.90;;;;;;5082851;28;20481;-38
2022/10/19 05:21:10;;;;;;;1.70;1.10;;;13.00;99.90;;;;;;5081390;28;20427;-38
2022/10/19 05:23:40;;;;;;;3.00;1.33;;;13.00;99.90;;;;;;5076946;28;20922;-41
2022/10/19 05:26:08;;;;;;;2.03;0.80;;;13.00;99.90;;;;;;5077241;28;20461;-40
2022/10/19 05:28:36;;;;;;;3.77;1.00;;;13.00;99.90;;;;;;5077070;28;20456;-43
2022/10/19 05:31:08;;;;;;;2.80;1.00;;;12.90;99.90;;;;;;5077022;28;21138;-41
2022/10/19 05:33:35;;;;;;;6.30;1.20;;;12.90;99.90;;;;;;5078730;28;20496;-41
2022/10/19 05:36:11;;;;;;;1.37;1.00;;;12.80;99.90;;;;;;5082748;28;20477;-42
2022/10/19 05:38:39;;;;;;;1.40;0.80;;;12.80;99.90;;;;;;5087991;28;20832;-41
2022/10/19 05:41:06;;;;;;;1.23;0.93;;;12.80;99.90;;;;;;5090415;28;20470;-38
2022/10/19 05:43:33;;;;;;;3.33;1.30;;;12.60;99.90;;;;;;5089963;28;20454;-40
2022/10/19 05:46:03;;;;;;;1.10;0.80;;;12.50;99.90;;;;;;5089411;28;20454;-42
2022/10/19 05:48:32;;;;;;;3.90;1.00;;;12.40;99.90;;;;;;5093694;28;20426;-41
2022/10/19 05:51:00;;;;;;;5.40;1.17;;;12.30;99.90;;;;;;5092523;28;20458;-40
2022/10/19 05:53:26;;;;;;;1.30;0.90;;;12.30;99.90;;;;;;5093139;28;20505;-40
2022/10/19 05:55:55;;;;;;;2.43;2.23;;;12.40;99.90;;;;;;5092778;28;20442;-39
2022/10/19 05:58:21;;;;;;;10.10;1.67;;;12.30;99.90;;;;;;5093245;28;20470;-41
2022/10/19 06:00:52;;;;;;;1.30;1.03;;;12.30;99.90;;;;;;5093118;28;20453;-41
2022/10/19 06:03:19;;;;;;;5.77;1.67;;;12.30;99.90;;;;;;5110006;28;20486;-41
2022/10/19 06:05:46;;;;;;;1.53;1.10;;;12.40;99.90;;;;;;5113190;28;20446;-41
2022/10/19 06:08:13;;;;;;;1.70;1.10;;;12.40;99.90;;;;;;5113765;28;20501;-39
2022/10/19 06:10:39;;;;;;;7.63;1.40;;;12.30;99.90;;;;;;5113204;28;20472;-41
2022/10/19 06:13:07;;;;;;;1.30;0.90;;;12.30;99.90;;;;;;5112049;28;20791;-41
2022/10/19 06:15:35;;;;;;;3.53;1.03;;;12.30;99.90;;;;;;5108460;28;20537;-41
2022/10/19 06:18:04;;;;;;;6.90;1.20;;;12.40;99.90;;;;;;5107490;28;20433;-41
2022/10/19 06:20:31;;;;;;;1.07;0.97;;;12.40;99.90;;;;;;5107916;28;20476;-42
2022/10/19 06:22:58;;;;;;;1.93;1.20;;;12.50;99.90;;;;;;5108130;28;20436;-40
2022/10/19 06:25:24;;;;;;;1.50;1.20;;;12.50;99.90;;;;;;5108186;28;20436;-41
2022/10/19 06:27:53;;;;;;;3.17;1.10;;;12.50;99.90;;;;;;5107944;28;20997;-40
2022/10/19 06:30:21;;;;;;;1.43;1.13;;;12.60;99.90;;;;;;5108134;28;21011;-41
2022/10/19 06:32:51;;;;;;;5.10;1.20;;;12.60;99.90;;;;;;5105343;28;20511;-40
2022/10/19 06:35:18;;;;;;;3.03;1.03;;;12.60;99.90;;;;;;5102038;28;20485;-40
2022/10/19 06:37:45;;;;;;;2.63;1.03;;;12.70;99.90;;;;;;5096074;28;20466;-41
2022/10/19 06:40:12;;;;;;;3.93;1.00;;;12.70;99.90;;;;;;5084116;28;20430;-39
2022/10/19 06:42:38;;;;;;;3.17;1.57;;;12.80;99.90;;;;;;5089445;28;20434;-40
2022/10/19 06:45:06;;;;;;;3.70;1.33;;;12.80;99.90;;;;;;5101404;28;20473;-56
2022/10/19 06:47:35;;;;;;;1.40;1.13;;;12.90;99.90;;;;;;5103980;28;21012;-59
2022/10/19 06:50:03;;;;;;;8.53;1.40;;;12.80;99.90;;;;;;5091577;28;20458;-59
2022/10/19 06:52:29;;;;;;;2.43;1.20;;;12.80;99.90;;;;;;5105520;28;20446;-55
2022/10/19 06:54:56;;;;;;;5.23;1.17;;;12.80;99.90;;;;;;5092479;28;20477;-59
2022/10/19 06:57:23;;;;;;;3.43;0.90;;;12.80;99.90;;;;;;5097337;28;20445;-52
2022/10/19 06:59:53;;;;;;;2.13;1.30;;;12.80;99.90;;;;;;5100620;28;20462;-54
2022/10/19 07:02:19;;;;;;;5.33;1.10;;;13.00;99.90;;;;;;5090142;28;20457;-58
2022/10/19 07:04:47;;;;;;;2.67;0.83;;;12.90;99.90;;;;;;5079843;28;20442;-57
2022/10/19 07:07:14;;;;;;;1.93;1.20;;;12.90;99.90;;;;;;5087705;28;20442;-54
2022/10/19 07:09:41;;;;;;;2.20;1.10;;;12.90;99.90;;;;;;5106030;28;20737;-58
2022/10/19 07:12:09;;;;;;;3.87;1.10;;;12.90;99.90;;;;;;5101085;28;20471;-59
2022/10/19 07:14:38;;;;;;;2.27;1.27;;;12.90;99.90;;;;;;5106939;28;20473;-57
2022/10/19 07:17:05;;;;;;;1.30;1.00;;;12.90;99.90;;;;;;5106429;28;20472;-59
2022/10/19 07:19:32;;;;;;;3.90;1.10;;;13.00;99.90;;;;;;5106608;28;20445;-58
2022/10/19 07:22:00;;;;;;;1.30;1.03;;;13.00;99.90;;;;;;5106074;28;20450;-59
2022/10/19 07:24:29;;;;;;;7.57;1.50;;;13.10;99.90;;;;;;5105607;28;20449;-57
2022/10/19 07:26:56;;;;;;;3.20;1.10;;;13.10;99.90;;;;;;5109721;28;20433;-55
2022/10/19 07:29:23;;;;;;;2.50;0.83;;;13.20;99.90;;;;;;5108181;28;20458;-57
2022/10/19 07:31:51;;;;;;;1.47;1.10;;;13.30;99.90;;;;;;5093302;28;20448;-57
2022/10/19 07:34:19;;;;;;;3.30;1.20;;;13.30;99.90;;;;;;5093433;28;20478;-57
2022/10/19 07:36:48;;;;;;;3.30;1.10;;;13.30;99.90;;;;;;5093461;28;20446;-54
2022/10/19 07:39:17;;;;;;;1.57;1.03;;;13.40;99.90;;;;;;5093250;28;20470;-58
2022/10/19 07:41:44;;;;;;;7.20;1.27;;;13.50;99.90;;;;;;5093221;28;20431;-54
2022/10/19 07:44:12;;;;;;;2.53;1.70;;;13.60;99.90;;;;;;5093219;28;20488;-53
2022/10/19 07:46:41;;;;;;;6.50;2.17;;;15.30;99.90;;;;;;5093188;28;20454;-58
2022/10/19 07:49:09;;;;;;;1.50;1.00;;;13.70;99.90;;;;;;5093869;28;20501;-58
2022/10/19 07:51:37;;;;;;;2.03;1.20;;;13.80;99.90;;;;;;5092487;28;20470;-56
2022/10/19 07:54:04;;;;;;;3.23;1.37;;;13.80;99.90;;;;;;5093615;28;20528;-59
2022/10/19 07:56:34;;;;;;;5.03;1.40;;;13.90;99.90;;;;;;5092887;28;20576;-58
2022/10/19 07:59:03;;;;;;;2.20;1.03;;;14.00;99.90;;;;;;5091954;28;20473;-58
2022/10/19 08:01:32;;;;;;;1.00;0.80;;;14.10;99.90;;;;;;5092754;28;20466;-58
2022/10/19 08:04:00;;;;;;;2.33;0.97;;;14.10;99.90;;;;;;5092600;28;20422;-59
2022/10/19 08:06:28;;;;;;;3.83;1.17;;;14.20;99.90;;;;;;5092388;28;20521;-53
2022/10/19 08:08:55;;;;;;;1.10;0.80;;;14.30;99.90;;;;;;5092177;28;20438;-60
2022/10/19 08:11:25;;;;;;;1.80;0.93;;;14.20;99.90;;;;;;5092674;28;20510;-58
2022/10/19 08:13:54;;;;;;;1.60;1.33;;;14.20;99.90;;;;;;5092836;28;20504;-56
2022/10/19 08:16:24;;;;;;;4.60;1.13;;;14.10;99.90;;;;;;5097815;28;20431;-59
2022/10/19 08:18:55;;;;;;;3.30;1.20;;;14.00;99.90;;;;;;5097114;28;20501;-57
2022/10/19 08:21:22;;;;;;;2.30;1.20;;;13.90;99.90;;;;;;5096827;28;20450;-55
2022/10/19 08:23:52;;;;;;;2.90;1.30;;;13.90;99.90;;;;;;5097052;28;20525;-59
2022/10/19 08:26:20;;;;;;;1.50;0.87;;;13.90;99.90;;;;;;5096935;28;20449;-59
2022/10/19 08:28:47;;;;;;;4.60;1.07;;;13.70;99.90;;;;;;5097554;28;20505;-57
2022/10/19 08:31:18;;;;;;;3.07;1.53;;;13.60;99.90;;;;;;5097952;28;20453;-57
2022/10/19 08:33:49;;;;;;;2.30;1.53;;;13.50;99.90;;;;;;5096775;28;20411;-58
2022/10/19 08:36:16;;;;;;;2.60;1.10;;;13.40;99.90;;;;;;5097971;28;20434;-55
2022/10/19 08:38:43;;;;;;;1.87;1.20;;;13.30;99.90;;;;;;5096716;28;20451;-53
2022/10/19 08:41:28;;;;;;;2.33;1.13;;;13.30;99.90;;;;;;5096168;28;20469;-59
2022/10/19 08:44:23;;;;;;;6.10;0.97;;;13.40;99.90;;;;;;5097066;28;20470;-54
2022/10/19 08:47:00;;;;;;;3.70;1.80;;;13.50;99.90;;;;;;5096537;28;20514;-58
2022/10/19 08:49:30;;;;;;;1.20;1.07;;;13.70;99.90;;;;;;5096605;28;20426;-57
2022/10/19 08:52:06;;;;;;;2.33;1.00;;;13.90;99.90;;;;;;5096237;28;20533;-55
2022/10/19 08:54:40;;;;;;;3.47;1.10;;;14.10;99.90;;;;;;5095893;28;20525;-56
2022/10/19 08:57:15;;;;;;;2.07;0.93;;;14.20;99.90;;;;;;5095614;28;20461;-56
2022/10/19 08:59:48;;;;;;;7.53;1.10;;;14.30;99.90;;;;;;5095584;28;20410;-53
2022/10/19 09:02:22;;;;;;;1.53;1.17;;;14.20;99.90;;;;;;5096081;28;20530;-54
2022/10/19 09:04:54;;;;;;;4.40;1.10;;;14.10;99.90;;;;;;5095917;28;20414;-59
2022/10/19 09:07:28;;;;;;;4.23;1.20;;;14.00;99.90;;;;;;5095497;28;20486;-59
2022/10/19 09:09:58;;;;;;;2.90;1.07;;;14.00;99.90;;;;;;5095906;28;20457;-57
2022/10/19 09:12:34;;;;;;;2.77;1.40;;;14.00;99.90;;;;;;5095836;28;20521;-59
2022/10/19 09:15:04;;;;;;;1.60;1.10;;;14.00;99.90;;;;;;5096007;28;20573;-57
2022/10/19 09:17:38;;;;;;;3.43;1.13;;;14.00;99.90;;;;;;5095386;28;20442;-57
2022/10/19 09:20:19;;;;;;;6.30;1.13;;;14.10;99.90;;;;;;5095389;28;20525;-57
2022/10/19 09:22:50;;;;;;;2.47;1.10;;;14.00;99.90;;;;;;5096443;28;20445;-58
2022/10/19 09:25:21;;;;;;;3.33;1.40;;;14.00;99.90;;;;;;5095260;28;20476;-52
2022/10/19 09:27:55;;;;;;;2.83;1.03;;;14.10;99.90;;;;;;5095452;28;20461;-59
2022/10/19 09:30:24;;;;;;;4.30;1.20;;;14.30;99.90;;;;;;5095501;28;20434;-58
2022/10/19 09:32:59;;;;;;;3.93;1.07;;;14.40;99.90;;;;;;5095375;28;20482;-56
2022/10/19 09:35:30;;;;;;;2.43;1.27;;;14.50;99.90;;;;;;5095235;28;20504;-59
2022/10/19 09:37:57;;;;;;;7.20;1.50;;;14.60;99.90;;;;;;5094653;28;20446;-56
2022/10/19 09:40:26;;;;;;;2.80;1.13;;;14.70;99.90;;;;;;5093536;28;20451;-58
2022/10/19 09:42:57;;;;;;;5.77;1.37;;;14.70;99.90;;;;;;5093885;28;20505;-58
2022/10/19 09:45:36;;;;;;;1.17;0.90;;;14.70;99.90;;;;;;5093926;28;20462;-56
2022/10/19 09:48:19;;;;;;;2.30;1.20;;;14.70;99.90;;;;;;5094308;28;20472;-57
2022/10/19 09:50:53;;;;;;;2.10;1.40;;;14.70;99.90;;;;;;5094143;28;20413;-56
2022/10/19 09:53:21;;;;;;;1.20;0.97;;;14.60;99.90;;;;;;5094547;28;20470;-54
2022/10/19 09:55:57;;;;;;;2.60;1.40;;;14.60;99.90;;;;;;5094246;28;20474;-56
2022/10/19 09:58:26;;;;;;;2.17;1.00;;;14.60;99.90;;;;;;5093558;28;21041;-57
2022/10/19 10:00:54;;;;;;;3.20;1.30;;;14.60;99.90;;;;;;5094060;28;20431;-58
2022/10/19 10:03:28;;;;;;;3.60;1.30;;;14.60;99.90;;;;;;5093568;28;20492;-58
2022/10/19 10:05:58;;;;;;;1.30;0.90;;;14.70;99.90;;;;;;5094065;28;20483;-54
2022/10/19 10:08:27;;;;;;;1.20;1.07;;;14.80;99.90;;;;;;5092697;28;20469;-59
2022/10/19 10:11:07;;;;;;;3.43;1.17;;;14.90;99.90;;;;;;5092405;28;20477;-57
2022/10/19 10:13:38;;;;;;;1.40;0.97;;;15.20;99.90;;;;;;5091542;28;20510;-58
2022/10/19 10:16:08;;;;;;;2.03;1.00;;;15.60;99.90;;;;;;5091006;28;20501;-57
2022/10/19 10:18:44;;;;;;;6.10;1.10;;;15.90;99.90;;;;;;5091029;28;20454;-54
2022/10/19 10:21:14;;;;;;;2.10;1.13;;;16.00;99.90;;;;;;5090787;28;20798;-58
2022/10/19 10:23:41;;;;;;;2.93;1.37;;;15.90;99.90;;;;;;5091165;28;20449;-56
2022/10/19 10:26:19;;;;;;;1.30;1.20;;;16.00;99.90;;;;;;5090556;28;20513;-54
2022/10/19 10:28:50;;;;;;;3.60;0.90;;;16.70;99.90;;;;;;5089929;28;20422;-58
2022/10/19 10:31:23;;;;;;;1.83;1.03;;;17.20;99.90;;;;;;5090138;28;20816;-58
2022/10/19 10:33:56;;;;;;;2.93;1.40;;;17.80;99.90;;;;;;5088488;28;20434;-57
2022/10/19 10:36:24;;;;;;;3.33;1.20;;;18.70;99.90;;;;;;5087625;28;20562;-58
2022/10/19 10:38:57;;;;;;;6.87;1.47;;;19.40;99.90;;;;;;5085709;28;20468;-55
2022/10/19 10:41:27;;;;;;;1.93;1.03;;;20.10;99.90;;;;;;5086089;28;20426;-57
2022/10/19 10:43:57;;;;;;;3.17;1.27;;;20.20;97.50;;;;;;5085912;28;20498;-58
2022/10/19 10:46:27;;;;;;;2.30;1.43;;;19.80;96.30;;;;;;5087162;28;20429;-58
2022/10/19 10:49:01;;;;;;;3.23;1.13;;;19.20;95.30;;;;;;5087362;28;20473;-57
2022/10/19 10:51:34;;;;;;;1.30;0.90;;;18.90;95.20;;;;;;5087973;28;20454;-56
2022/10/19 10:54:16;;;;;;;2.23;1.10;;;18.60;95.40;;;;;;5087572;28;20470;-56
2022/10/19 10:56:45;;;;;;;1.83;0.90;;;18.90;95.20;;;;;;5087566;28;20466;-57
2022/10/19 10:59:16;;;;;;;2.60;1.27;;;19.10;95.00;;;;;;5086732;28;20442;-59
2022/10/19 11:01:51;;;;;;;1.10;0.83;;;19.20;94.10;;;;;;5086100;28;20457;-58
2022/10/19 11:04:24;;;;;;;3.17;2.07;;;18.90;94.40;;;;;;5086187;28;20973;-57
2022/10/19 11:06:55;;;;;;;1.80;0.90;;;18.60;95.10;;;;;;5086650;28;20435;-59
2022/10/19 11:09:29;;;;;;;1.00;0.80;;;18.20;95.10;;;;;;5087245;28;20545;-55
2022/10/19 11:12:01;;;;;;;5.13;2.70;;;17.70;96.30;;;;;;5087923;28;20466;-56
2022/10/19 11:14:36;;;;;;;1.57;1.07;;;17.30;97.80;;;;;;5087878;28;20426;-58
2022/10/19 11:17:06;;;;;;;1.67;1.00;;;16.90;98.80;;;;;;5089228;28;20535;-58
2022/10/19 11:19:36;;;;;;;2.23;0.90;;;16.60;99.90;;;;;;5090270;28;20446;-58
2022/10/19 11:22:16;;;;;;;1.30;0.90;;;16.40;99.90;;;;;;5090295;28;20530;-58
2022/10/19 11:24:57;;;;;;;1.07;0.70;;;16.30;99.90;;;;;;5089715;28;20445;-57
2022/10/19 11:27:36;;;;;;;1.40;1.07;;;16.30;99.90;;;;;;5090087;28;20430;-58
2022/10/19 11:30:10;;;;;;;1.50;1.10;;;16.30;99.90;;;;;;5090059;28;20419;-53
2022/10/19 11:32:47;;;;;;;1.90;1.07;;;16.40;99.90;;;;;;5089338;28;20422;-56
2022/10/19 11:35:30;;;;;;;1.00;0.70;;;16.50;99.90;;;;;;5088327;28;20458;-58
2022/10/19 11:38:08;;;;;;;7.03;1.70;;;16.60;99.90;;;;;;5088290;28;20502;-60
2022/10/19 11:40:40;;;;;;;1.97;1.20;;;16.80;99.90;;;;;;5088352;28;20761;-58
2022/10/19 11:43:13;;;;;;;1.67;1.27;;;16.90;99.90;;;;;;5088116;28;20472;-57
2022/10/19 11:45:51;;;;;;;1.53;0.97;;;16.90;99.90;;;;;;5088563;28;20442;-57
2022/10/19 11:48:38;;;;;;;2.67;1.67;;;16.90;99.90;;;;;;5088316;28;20426;-56
2022/10/19 11:51:11;;;;;;;1.93;1.77;;;16.90;99.90;;;;;;5088757;28;20470;-54
2022/10/19 11:53:50;;;;;;;1.20;0.93;;;17.10;99.90;;;;;;5088015;28;20430;-53
2022/10/19 11:56:22;;;;;;;1.33;1.03;;;17.20;99.90;;;;;;5087881;28;20500;-51
2022/10/19 11:58:58;;;;;;;1.00;0.80;;;17.10;99.90;;;;;;5088295;28;20427;-54
2022/10/19 12:01:42;;;;;;;1.10;0.80;;;17.00;99.30;;;;;;5088349;28;20478;-55
2022/10/19 12:04:27;;;;;;;1.60;0.90;;;16.70;99.40;;;;;;5088032;28;20435;-53
2022/10/19 12:07:03;;;;;;;1.87;0.90;;;16.60;99.90;;;;;;5087624;28;20489;-53
2022/10/19 12:09:40;;;;;;;1.10;0.93;;;16.50;99.90;;;;;;5087829;28;20433;-53
2022/10/19 12:12:23;;;;;;;1.20;0.97;;;16.40;99.90;;;;;;5087648;28;20470;-58
2022/10/19 12:14:54;;;;;;;5.50;1.00;;;16.30;99.90;;;;;;5086307;28;20438;-59
2022/10/19 12:17:26;;;;;;;1.10;0.90;;;16.20;99.90;;;;;;5087822;28;20430;-59
2022/10/19 12:19:56;;;;;;;1.00;0.80;;;16.20;99.90;;;;;;5088863;28;20429;-60
2022/10/19 12:22:28;;;;;;;1.70;1.17;;;16.40;99.90;;;;;;5088413;28;20450;-57
2022/10/19 12:24:58;;;;;;;3.80;1.20;;;16.50;99.90;;;;;;5088538;28;20423;-57
2022/10/19 12:27:30;;;;;;;4.20;1.23;;;16.70;99.90;;;;;;5089558;28;20815;-58
2022/10/19 12:30:03;;;;;;;2.20;1.13;;;16.70;99.90;;;;;;5088472;28;20470;-58
2022/10/19 12:32:51;;;;;;;1.57;1.10;;;16.70;99.90;;;;;;5088527;28;20882;-58
2022/10/19 12:35:31;;;;;;;1.90;1.30;;;16.60;99.90;;;;;;5088222;28;20511;-58
2022/10/19 12:38:06;;;;;;;2.87;1.40;;;16.40;99.90;;;;;;5089113;28;20436;-58
2022/10/19 12:40:41;;;;;;;1.40;1.00;;;16.30;99.90;;;;;;5087678;28;20484;-58
2022/10/19 12:43:13;;;;;;;1.60;1.07;;;16.30;99.90;;;;;;5089196;28;20752;-56
2022/10/19 12:45:44;;;;;;;1.40;0.97;;;16.20;99.90;;;;;;5087800;28;20481;-56
2022/10/19 12:48:23;;;;;;;2.40;1.17;;;16.30;99.90;;;;;;5088192;28;20457;-59
2022/10/19 12:51:20;;;;;;;3.10;1.33;;;16.50;99.90;;;;;;5087334;28;20435;-56
2022/10/19 12:53:51;;;;;;;2.70;1.23;;;16.60;99.90;;;;;;5087799;28;20446;-59
2022/10/19 12:56:23;;;;;;;1.57;1.03;;;16.60;99.90;;;;;;5088833;28;20458;-58
2022/10/19 12:58:56;;;;;;;1.50;0.90;;;16.60;99.90;;;;;;5089473;28;20431;-56
2022/10/19 13:01:26;;;;;;;2.17;1.47;;;16.50;99.90;;;;;;5091069;28;20887;-58
2022/10/19 13:04:08;;;;;;;3.10;1.43;;;16.50;99.90;;;;;;5091700;28;20462;-54